Time;durP1;ratioP1;P1;durP2;ratioP2;P2;SDS_P1;SDS_P2;PMS_P1;PMS_P2;Temp;Humidity;BMP_temperature;BMP_pressure;BME280_temperature;BME280_humidity;BME280_pressure;Samples;Min_cycle;Max_cycle;Signal;HPM_P1;HPM_P2
2023/02/07 00:02:21;;;;;;;24.13;17.17;;;5.00;99.90;;;;;;5036009;28;20193;-63
2023/02/07 00:04:47;;;;;;;23.00;15.73;;;5.10;99.90;;;;;;5039680;28;20606;-63
2023/02/07 00:07:12;;;;;;;21.97;16.13;;;5.10;99.90;;;;;;5045795;28;20699;-63
2023/02/07 00:09:38;;;;;;;21.33;15.90;;;5.10;99.90;;;;;;5016376;28;20645;-63
2023/02/07 00:12:04;;;;;;;22.33;14.97;;;5.20;99.90;;;;;;5032882;28;20225;-63
2023/02/07 00:14:30;;;;;;;21.20;14.23;;;5.20;99.90;;;;;;5033543;28;20183;-63
2023/02/07 00:16:55;;;;;;;21.17;15.07;;;5.20;99.90;;;;;;5033184;28;20184;-63
2023/02/07 00:19:21;;;;;;;21.17;15.23;;;5.20;99.90;;;;;;5043204;28;20190;-63
2023/02/07 00:21:47;;;;;;;17.70;13.97;;;5.20;99.90;;;;;;5049087;28;20237;-63
2023/02/07 00:24:12;;;;;;;23.27;14.53;;;5.10;99.90;;;;;;5049156;28;20638;-63
2023/02/07 00:26:39;;;;;;;19.23;12.77;;;5.00;99.90;;;;;;5020680;28;20214;-62
2023/02/07 00:29:04;;;;;;;22.52;14.48;;;4.90;99.90;;;;;;5038130;28;20183;-62
2023/02/07 00:31:33;;;;;;;22.57;15.30;;;4.90;99.90;;;;;;5016091;28;20596;-62
2023/02/07 00:34:03;;;;;;;20.70;13.52;;;4.90;99.90;;;;;;5014902;28;20214;-63
2023/02/07 00:36:30;;;;;;;25.77;15.95;;;4.90;99.90;;;;;;5033328;28;20202;-62
2023/02/07 00:38:58;;;;;;;21.08;13.73;;;5.00;99.90;;;;;;5046392;28;20315;-62
2023/02/07 00:41:25;;;;;;;19.80;13.38;;;4.80;99.90;;;;;;5033374;28;20229;-62
2023/02/07 00:43:50;;;;;;;18.60;13.32;;;4.70;99.90;;;;;;5015620;28;20513;-64
2023/02/07 00:46:16;;;;;;;19.70;14.03;;;4.60;99.90;;;;;;5047796;28;20196;-63
2023/02/07 00:48:42;;;;;;;24.00;14.90;;;4.60;99.90;;;;;;5033539;28;20676;-63
2023/02/07 00:51:09;;;;;;;17.63;12.43;;;4.50;99.90;;;;;;5032619;28;20190;-62
2023/02/07 00:53:36;;;;;;;20.73;14.25;;;4.50;99.90;;;;;;5038194;28;20555;-62
2023/02/07 00:56:01;;;;;;;22.80;14.88;;;4.50;99.90;;;;;;5032392;28;20578;-64
2023/02/07 00:58:27;;;;;;;20.60;13.50;;;4.60;99.90;;;;;;5044251;28;20177;-62
2023/02/07 01:00:53;;;;;;;19.50;14.30;;;4.60;99.90;;;;;;5051763;28;20186;-63
2023/02/07 01:03:19;;;;;;;21.30;13.77;;;4.60;99.90;;;;;;5051503;28;20174;-64
2023/02/07 01:05:45;;;;;;;23.92;14.13;;;4.60;99.90;;;;;;5033056;28;20202;-62
2023/02/07 01:08:11;;;;;;;24.10;14.60;;;4.70;99.90;;;;;;5034293;28;20245;-62
2023/02/07 01:10:42;;;;;;;20.07;14.57;;;4.70;99.90;;;;;;5033767;28;20179;-62
2023/02/07 01:13:08;;;;;;;25.20;14.23;;;4.70;99.90;;;;;;5051921;28;21081;-62
2023/02/07 01:15:38;;;;;;;21.33;14.70;;;4.70;99.90;;;;;;5042239;28;20536;-62
2023/02/07 01:18:06;;;;;;;25.52;14.63;;;4.70;99.90;;;;;;5031923;28;20262;-62
2023/02/07 01:20:31;;;;;;;21.50;13.75;;;4.70;99.90;;;;;;5048908;28;20560;-62
2023/02/07 01:22:57;;;;;;;25.08;14.98;;;4.70;99.90;;;;;;5038570;28;20201;-67
2023/02/07 01:25:23;;;;;;;20.23;13.23;;;4.70;99.90;;;;;;5032460;28;20265;-62
2023/02/07 01:27:49;;;;;;;25.47;15.07;;;4.70;99.90;;;;;;5033163;28;20294;-62
2023/02/07 01:30:15;;;;;;;19.40;13.90;;;4.60;99.90;;;;;;5032440;28;20183;-62
2023/02/07 01:32:40;;;;;;;19.93;14.17;;;4.60;99.90;;;;;;5032194;28;20315;-62
2023/02/07 01:35:06;;;;;;;19.00;13.50;;;4.60;99.90;;;;;;5032176;28;20305;-62
2023/02/07 01:37:32;;;;;;;24.13;13.17;;;4.60;99.90;;;;;;5032329;28;20197;-62
2023/02/07 01:39:58;;;;;;;20.37;14.90;;;4.60;99.90;;;;;;5031843;28;20429;-68
2023/02/07 01:42:26;;;;;;;20.48;13.90;;;4.50;99.90;;;;;;5035295;28;20471;-63
2023/02/07 01:44:52;;;;;;;20.48;13.75;;;4.50;99.90;;;;;;5032707;28;20220;-62
2023/02/07 01:47:20;;;;;;;20.57;13.40;;;4.60;99.90;;;;;;5015740;28;20483;-62
2023/02/07 01:49:47;;;;;;;19.05;13.13;;;4.50;99.90;;;;;;5048786;28;20197;-63
2023/02/07 01:52:17;;;;;;;19.02;13.45;;;4.40;99.90;;;;;;5045850;28;20252;-62
2023/02/07 01:54:47;;;;;;;18.67;12.77;;;4.40;99.90;;;;;;5018531;28;20696;-62
2023/02/07 01:57:16;;;;;;;17.30;12.32;;;4.40;99.90;;;;;;5030865;28;20304;-62
2023/02/07 01:59:44;;;;;;;20.17;12.40;;;4.40;99.90;;;;;;5014671;28;20220;-62
2023/02/07 02:02:13;;;;;;;17.67;12.32;;;4.40;99.90;;;;;;5031377;28;20650;-62
2023/02/07 02:04:39;;;;;;;18.75;12.35;;;4.40;99.90;;;;;;5014202;28;20175;-62
2023/02/07 02:07:08;;;;;;;23.15;13.00;;;4.40;99.90;;;;;;5031842;28;20174;-62
2023/02/07 02:09:36;;;;;;;17.92;10.93;;;4.40;99.90;;;;;;5023956;28;20190;-62
2023/02/07 02:12:19;;;;;;;21.33;12.27;;;4.40;99.90;;;;;;5034296;28;20297;-62
2023/02/07 02:15:06;;;;;;;16.15;10.80;;;4.40;99.90;;;;;;5049609;28;20508;-62
2023/02/07 02:17:59;;;;;;;16.92;11.75;;;4.40;99.90;;;;;;5032357;28;20191;-62
2023/02/07 02:20:43;;;;;;;15.57;11.63;;;4.30;99.90;;;;;;5031111;28;20278;-62
2023/02/07 02:23:49;;;;;;;19.00;13.07;;;4.30;99.90;;;;;;5030886;28;20186;-62
2023/02/07 02:26:18;;;;;;;16.98;11.15;;;4.30;99.90;;;;;;5031386;28;20308;-62
2023/02/07 02:28:50;;;;;;;20.13;12.15;;;4.30;99.90;;;;;;5005428;28;20280;-62
2023/02/07 02:31:45;;;;;;;20.27;11.43;;;4.30;99.90;;;;;;5051441;28;20184;-62
2023/02/07 02:34:20;;;;;;;15.10;10.45;;;4.20;99.90;;;;;;5049482;28;20188;-63
2023/02/07 02:37:12;;;;;;;25.42;12.52;;;4.20;99.90;;;;;;5049565;28;20637;-62
2023/02/07 02:40:09;;;;;;;15.88;10.68;;;4.20;99.90;;;;;;5041662;28;20197;-62
2023/02/07 02:42:44;;;;;;;16.88;11.98;;;4.20;99.90;;;;;;5050490;28;20201;-63
2023/02/07 02:45:26;;;;;;;19.02;12.55;;;4.20;99.90;;;;;;5037566;28;20175;-63
2023/02/07 02:47:53;;;;;;;15.45;11.32;;;4.20;99.90;;;;;;5039890;28;20178;-62
2023/02/07 02:50:26;;;;;;;15.27;11.77;;;4.20;99.90;;;;;;5034639;28;20221;-62
2023/02/07 02:52:52;;;;;;;18.88;10.90;;;4.20;99.90;;;;;;5034756;28;20222;-62
2023/02/07 02:55:32;;;;;;;16.60;11.23;;;4.20;99.90;;;;;;5051065;28;20239;-62
2023/02/07 02:58:03;;;;;;;13.32;9.20;;;4.20;99.90;;;;;;5036463;28;20598;-62
2023/02/07 03:00:40;;;;;;;15.38;10.75;;;4.10;99.90;;;;;;5037270;28;20201;-62
2023/02/07 03:03:06;;;;;;;14.48;10.65;;;4.10;99.90;;;;;;5054404;28;20166;-68
2023/02/07 03:05:45;;;;;;;13.90;10.77;;;4.10;99.90;;;;;;5055052;28;20177;-63
2023/02/07 03:08:29;;;;;;;13.93;9.80;;;4.10;99.90;;;;;;5019577;28;20624;-63
2023/02/07 03:11:07;;;;;;;15.70;11.38;;;4.20;99.90;;;;;;5055306;28;20213;-62
2023/02/07 03:13:51;;;;;;;17.95;10.25;;;4.10;99.90;;;;;;5055307;28;20669;-62
2023/02/07 03:16:33;;;;;;;17.27;10.05;;;4.10;99.90;;;;;;5054703;28;20211;-62
2023/02/07 03:19:20;;;;;;;14.50;11.13;;;4.10;99.90;;;;;;5037676;28;20204;-63
2023/02/07 03:21:54;;;;;;;13.82;10.45;;;4.10;99.90;;;;;;5040259;28;20231;-62
2023/02/07 03:24:28;;;;;;;13.73;9.85;;;4.10;99.90;;;;;;5016503;28;20528;-62
2023/02/07 03:26:58;;;;;;;13.80;9.70;;;4.00;99.90;;;;;;5017613;28;20262;-63
2023/02/07 03:29:28;;;;;;;16.98;10.60;;;4.00;99.90;;;;;;5054595;28;20235;-63
2023/02/07 03:31:58;;;;;;;15.15;10.00;;;4.00;99.90;;;;;;5054870;28;20201;-63
2023/02/07 03:34:37;;;;;;;17.00;11.40;;;4.00;99.90;;;;;;5054243;28;20227;-62
2023/02/07 03:37:15;;;;;;;17.42;11.23;;;4.00;99.90;;;;;;5034987;28;20249;-62
2023/02/07 03:39:41;;;;;;;17.80;11.13;;;3.80;99.90;;;;;;5034883;28;20285;-62
2023/02/07 03:42:22;;;;;;;12.93;11.23;;;3.90;99.90;;;;;;5038439;28;20659;-63
2023/02/07 03:44:52;;;;;;;14.05;11.02;;;3.90;99.90;;;;;;5054770;28;20436;-62
2023/02/07 03:47:18;;;;;;;18.52;12.07;;;3.90;99.90;;;;;;5019765;28;20656;-62
2023/02/07 03:49:44;;;;;;;13.38;9.75;;;3.90;99.90;;;;;;5031969;28;20588;-62
2023/02/07 03:52:10;;;;;;;17.00;11.10;;;3.90;99.90;;;;;;5034003;28;20202;-62
2023/02/07 03:54:36;;;;;;;17.83;10.87;;;3.90;99.90;;;;;;5034077;28;20177;-62
2023/02/07 03:57:01;;;;;;;15.17;10.43;;;3.90;99.90;;;;;;5034256;28;20540;-62
2023/02/07 03:59:27;;;;;;;15.47;11.00;;;4.00;99.90;;;;;;5016166;28;20650;-62
2023/02/07 04:01:53;;;;;;;17.63;9.63;;;3.90;99.90;;;;;;5034180;28;20210;-62
2023/02/07 04:04:18;;;;;;;15.40;10.50;;;3.90;99.90;;;;;;5037277;28;20681;-62
2023/02/07 04:06:44;;;;;;;16.00;10.83;;;3.80;99.90;;;;;;5053968;28;20208;-62
2023/02/07 04:09:10;;;;;;;15.07;10.67;;;3.90;99.90;;;;;;5053214;28;20915;-63
2023/02/07 04:11:37;;;;;;;15.00;10.43;;;3.80;99.90;;;;;;5036322;28;20650;-62
2023/02/07 04:14:03;;;;;;;16.40;11.02;;;3.80;99.90;;;;;;5052604;28;20484;-63
2023/02/07 04:16:28;;;;;;;15.07;10.70;;;3.80;99.90;;;;;;5053445;28;20263;-63
2023/02/07 04:18:54;;;;;;;13.47;10.43;;;3.70;99.90;;;;;;5052437;28;20633;-62
2023/02/07 04:21:20;;;;;;;14.80;11.33;;;3.70;99.90;;;;;;5052569;28;20185;-63
2023/02/07 04:23:45;;;;;;;16.90;10.33;;;3.70;99.90;;;;;;5053487;28;20647;-63
2023/02/07 04:26:11;;;;;;;17.27;11.20;;;3.70;99.90;;;;;;5052033;28;20178;-63
2023/02/07 04:28:37;;;;;;;16.47;10.70;;;3.70;99.90;;;;;;5035913;28;20283;-63
2023/02/07 04:31:03;;;;;;;17.23;11.53;;;3.70;99.90;;;;;;5053818;28;20172;-63
2023/02/07 04:33:28;;;;;;;14.13;9.97;;;3.70;99.90;;;;;;5053122;28;20293;-62
2023/02/07 04:35:55;;;;;;;14.33;10.60;;;3.70;99.90;;;;;;5053685;28;20200;-63
2023/02/07 04:38:21;;;;;;;13.88;10.57;;;3.60;99.90;;;;;;5052770;28;20192;-63
2023/02/07 04:40:47;;;;;;;17.87;11.57;;;3.60;99.90;;;;;;5053875;28;20609;-62
2023/02/07 04:43:13;;;;;;;14.20;12.00;;;3.60;99.90;;;;;;5052689;28;20642;-64
2023/02/07 04:45:38;;;;;;;17.43;13.67;;;3.50;99.90;;;;;;5050205;28;20290;-63
2023/02/07 04:48:04;;;;;;;14.70;11.60;;;3.60;99.90;;;;;;5053491;28;20182;-63
2023/02/07 04:50:30;;;;;;;15.87;12.30;;;3.50;99.90;;;;;;5051544;28;20193;-63
2023/02/07 04:52:56;;;;;;;16.77;11.70;;;3.50;99.90;;;;;;5053429;28;20450;-63
2023/02/07 04:55:21;;;;;;;17.20;11.77;;;3.60;99.90;;;;;;5052319;28;20470;-63
2023/02/07 04:57:48;;;;;;;16.67;11.43;;;3.50;99.90;;;;;;5053287;28;20211;-63
2023/02/07 05:00:14;;;;;;;15.43;12.18;;;3.50;99.90;;;;;;5052632;28;20177;-63
2023/02/07 05:02:40;;;;;;;18.63;11.55;;;3.50;99.90;;;;;;5047068;28;20547;-64
2023/02/07 05:05:06;;;;;;;16.50;12.20;;;3.40;99.90;;;;;;5017752;28;20185;-63
2023/02/07 05:07:32;;;;;;;17.10;12.00;;;3.20;99.90;;;;;;5051976;28;20474;-64
2023/02/07 05:09:58;;;;;;;16.27;11.07;;;3.20;99.90;;;;;;5034795;28;20636;-63
2023/02/07 05:12:23;;;;;;;15.47;11.07;;;3.20;99.90;;;;;;5049668;28;20648;-64
2023/02/07 05:14:49;;;;;;;21.60;11.43;;;3.20;99.90;;;;;;5022615;28;20248;-64
2023/02/07 05:17:15;;;;;;;13.17;11.10;;;3.20;99.90;;;;;;5031551;28;20194;-67
2023/02/07 05:19:41;;;;;;;13.83;10.20;;;3.30;99.90;;;;;;5015273;28;20186;-63
2023/02/07 05:22:06;;;;;;;13.07;10.40;;;3.30;99.90;;;;;;5016561;28;20200;-64
2023/02/07 05:24:32;;;;;;;17.20;11.50;;;3.40;99.90;;;;;;5031799;28;20917;-63
2023/02/07 05:26:58;;;;;;;15.93;10.67;;;3.30;99.90;;;;;;5032766;28;20248;-63
2023/02/07 05:29:24;;;;;;;15.53;10.70;;;3.30;99.90;;;;;;5031494;28;20200;-63
2023/02/07 05:34:34;;;;;;;10.30;8.95;;;3.30;99.90;;;;;;5031878;28;20258;-63
2023/02/07 05:36:59;;;;;;;12.97;10.60;;;3.20;99.90;;;;;;5032533;28;20259;-63
2023/02/07 05:39:25;;;;;;;14.77;11.20;;;3.20;99.90;;;;;;5014931;28;20532;-64
2023/02/07 05:41:51;;;;;;;14.30;11.15;;;3.20;99.90;;;;;;5047861;28;20229;-64
2023/02/07 05:44:17;;;;;;;12.80;9.63;;;3.20;99.90;;;;;;5051389;28;20182;-66
2023/02/07 05:46:43;;;;;;;10.87;8.97;;;3.20;99.90;;;;;;5053955;28;20652;-64
2023/02/07 05:49:09;;;;;;;15.40;10.77;;;3.20;99.90;;;;;;5064889;28;20986;-64
2023/02/07 05:51:34;;;;;;;10.53;8.67;;;3.20;99.90;;;;;;5069387;28;20208;-64
2023/02/07 05:54:00;;;;;;;10.60;8.47;;;3.30;99.90;;;;;;5071831;28;20180;-64
2023/02/07 05:56:26;;;;;;;12.13;9.20;;;3.30;99.90;;;;;;5065966;28;20192;-64
2023/02/07 05:58:52;;;;;;;12.50;8.90;;;3.30;99.90;;;;;;5065050;28;20218;-63
2023/02/07 06:01:18;;;;;;;16.67;9.98;;;3.30;99.90;;;;;;5048351;28;20565;-63
2023/02/07 06:03:43;;;;;;;14.27;9.10;;;3.30;99.90;;;;;;5070344;28;20191;-64
2023/02/07 06:06:11;;;;;;;11.77;9.10;;;3.30;99.90;;;;;;5069097;28;20810;-64
2023/02/07 06:08:37;;;;;;;11.68;9.18;;;3.30;99.90;;;;;;5053566;28;20275;-64
2023/02/07 06:11:03;;;;;;;12.10;9.10;;;3.20;99.90;;;;;;5054010;28;20316;-64
2023/02/07 06:13:29;;;;;;;14.20;10.30;;;3.10;99.90;;;;;;5070873;28;20298;-64
2023/02/07 06:15:54;;;;;;;12.70;9.10;;;3.20;99.90;;;;;;5066210;28;20424;-64
2023/02/07 06:18:20;;;;;;;13.53;9.30;;;3.20;99.90;;;;;;5069589;28;20192;-64
2023/02/07 06:20:48;;;;;;;12.80;8.53;;;3.20;99.90;;;;;;5076397;28;20264;-64
2023/02/07 06:23:14;;;;;;;13.43;10.32;;;3.20;99.90;;;;;;5076144;28;20250;-64
2023/02/07 06:25:40;;;;;;;12.55;9.70;;;3.20;99.90;;;;;;5063114;28;20178;-64
2023/02/07 06:28:06;;;;;;;10.47;9.40;;;3.20;99.90;;;;;;5071945;28;20215;-64
2023/02/07 06:30:31;;;;;;;12.93;9.77;;;3.30;99.90;;;;;;5058429;28;20192;-63
2023/02/07 06:32:57;;;;;;;11.93;9.83;;;3.30;99.90;;;;;;5072164;28;20661;-63
2023/02/07 06:35:23;;;;;;;14.30;9.47;;;3.30;99.90;;;;;;5067524;28;20227;-63
2023/02/07 06:37:48;;;;;;;12.53;9.50;;;3.30;99.90;;;;;;5056016;28;20199;-63
2023/02/07 06:40:14;;;;;;;14.90;11.13;;;3.30;99.90;;;;;;5050876;28;20226;-63
2023/02/07 06:42:40;;;;;;;14.10;10.00;;;3.30;99.90;;;;;;5050833;28;20243;-62
2023/02/07 06:45:06;;;;;;;15.10;10.90;;;3.30;99.90;;;;;;5055463;28;20273;-64
2023/02/07 06:47:32;;;;;;;13.40;9.90;;;3.20;99.90;;;;;;5055116;28;20181;-63
2023/02/07 06:49:58;;;;;;;15.35;10.63;;;3.20;99.90;;;;;;5037748;28;20177;-63
2023/02/07 06:52:23;;;;;;;12.77;10.13;;;3.20;99.90;;;;;;5053994;28;20259;-64
2023/02/07 06:54:49;;;;;;;18.23;10.40;;;3.20;99.90;;;;;;5055547;28;20205;-63
2023/02/07 06:57:15;;;;;;;17.17;11.43;;;3.20;99.90;;;;;;5052852;28;20617;-63
2023/02/07 06:59:40;;;;;;;15.53;10.40;;;3.20;99.90;;;;;;5034966;28;20241;-63
2023/02/07 07:02:06;;;;;;;26.07;16.87;;;3.20;99.90;;;;;;5017118;28;20261;-68
2023/02/07 07:04:32;;;;;;;31.20;19.47;;;3.10;99.90;;;;;;5035751;28;20286;-63
2023/02/07 07:06:57;;;;;;;26.70;17.97;;;3.00;99.90;;;;;;5035500;28;20179;-63
2023/02/07 07:09:23;;;;;;;18.60;12.80;;;2.90;99.90;;;;;;5035322;28;20188;-63
2023/02/07 07:11:49;;;;;;;17.70;12.93;;;2.70;99.90;;;;;;5017203;28;20215;-63
2023/02/07 07:14:14;;;;;;;15.20;11.60;;;2.50;99.90;;;;;;5035046;28;20268;-64
2023/02/07 07:16:40;;;;;;;13.53;12.13;;;2.40;99.90;;;;;;5034637;28;20180;-63
2023/02/07 07:19:06;;;;;;;15.60;10.50;;;2.30;99.90;;;;;;5034940;28;20176;-64
2023/02/07 07:21:32;;;;;;;15.57;11.53;;;2.20;99.90;;;;;;5038918;28;20390;-63
2023/02/07 07:23:58;;;;;;;16.60;11.57;;;2.00;99.90;;;;;;5045272;28;20420;-64
2023/02/07 07:26:23;;;;;;;19.73;12.47;;;2.00;99.90;;;;;;5047126;28;20194;-64
2023/02/07 07:28:49;;;;;;;16.37;12.43;;;2.00;99.90;;;;;;5037802;28;20193;-64
2023/02/07 07:31:15;;;;;;;16.10;11.93;;;1.90;99.90;;;;;;5034902;28;20191;-64
2023/02/07 07:33:41;;;;;;;18.45;13.15;;;2.00;99.90;;;;;;5034062;28;20815;-64
2023/02/07 07:36:07;;;;;;;19.63;13.10;;;2.00;99.90;;;;;;5034451;28;20267;-64
2023/02/07 07:38:33;;;;;;;16.02;11.82;;;2.20;99.90;;;;;;5033512;28;20192;-64
2023/02/07 07:40:59;;;;;;;14.83;11.03;;;2.30;99.90;;;;;;5034253;28;20219;-64
2023/02/07 07:43:25;;;;;;;13.32;11.65;;;2.20;99.90;;;;;;5043902;28;20530;-65
2023/02/07 07:45:53;;;;;;;14.20;11.23;;;2.20;99.90;;;;;;5021865;28;20196;-64
2023/02/07 07:48:20;;;;;;;13.60;12.10;;;2.40;99.90;;;;;;5036656;28;20182;-64
2023/02/07 07:50:46;;;;;;;11.52;10.32;;;2.50;99.90;;;;;;5050449;28;20195;-64
2023/02/07 07:53:11;;;;;;;14.87;12.00;;;2.50;99.90;;;;;;5045164;28;20209;-64
2023/02/07 07:55:37;;;;;;;14.57;11.23;;;2.70;99.90;;;;;;5034266;28;20239;-64
2023/02/07 07:58:03;;;;;;;16.03;11.77;;;2.70;99.90;;;;;;5034006;28;20444;-63
2023/02/07 08:00:29;;;;;;;14.75;11.07;;;2.70;99.90;;;;;;5022900;28;20188;-63
2023/02/07 08:02:55;;;;;;;13.30;10.73;;;2.80;99.90;;;;;;5054456;28;20181;-63
2023/02/07 08:05:21;;;;;;;13.73;9.70;;;2.80;99.90;;;;;;5038205;28;20578;-63
2023/02/07 08:07:46;;;;;;;14.00;9.77;;;2.90;99.90;;;;;;5040355;28;20182;-63
2023/02/07 08:10:12;;;;;;;13.63;10.80;;;2.90;99.90;;;;;;5033837;28;20447;-63
2023/02/07 08:12:38;;;;;;;12.90;10.75;;;3.00;99.90;;;;;;5033816;28;20210;-63
2023/02/07 08:15:06;;;;;;;16.97;12.40;;;3.10;99.90;;;;;;5033742;28;20192;-63
2023/02/07 08:17:32;;;;;;;13.63;11.13;;;3.20;99.90;;;;;;5033493;28;20185;-66
2023/02/07 08:19:58;;;;;;;13.02;10.45;;;3.20;99.90;;;;;;5033962;28;20198;-62
2023/02/07 08:22:24;;;;;;;15.90;11.50;;;3.30;99.90;;;;;;5032923;28;20181;-63
2023/02/07 08:24:49;;;;;;;16.80;11.57;;;3.40;99.90;;;;;;5033743;28;20189;-63
2023/02/07 08:27:15;;;;;;;14.20;11.07;;;3.50;99.90;;;;;;5034271;28;20749;-63
2023/02/07 08:29:41;;;;;;;14.67;10.90;;;3.60;99.90;;;;;;5032751;28;20524;-63
2023/02/07 08:32:07;;;;;;;13.90;11.90;;;3.60;99.90;;;;;;5033373;28;20213;-63
2023/02/07 08:34:36;;;;;;;12.67;11.07;;;3.60;99.90;;;;;;5043205;28;20196;-62
2023/02/07 08:37:07;;;;;;;12.60;10.95;;;3.60;99.90;;;;;;5045814;28;20504;-63
2023/02/07 08:39:35;;;;;;;15.65;11.50;;;3.60;99.90;;;;;;5032555;28;20240;-63
2023/02/07 08:42:04;;;;;;;15.00;12.40;;;3.70;99.90;;;;;;5033395;28;20228;-62
2023/02/07 08:44:31;;;;;;;18.42;11.00;;;3.80;99.90;;;;;;5014172;28;20179;-63
2023/02/07 08:46:56;;;;;;;15.80;12.35;;;3.80;99.90;;;;;;5032851;28;20183;-64
2023/02/07 08:49:22;;;;;;;18.10;11.93;;;3.90;99.90;;;;;;5043195;28;20312;-63
2023/02/07 08:51:48;;;;;;;15.90;12.02;;;4.00;99.90;;;;;;5040584;28;20233;-63
2023/02/07 08:54:14;;;;;;;15.87;12.80;;;4.00;99.90;;;;;;5033423;28;20175;-63
2023/02/07 08:56:40;;;;;;;15.80;11.57;;;4.10;99.90;;;;;;5033820;28;20554;-63
2023/02/07 08:59:06;;;;;;;14.60;11.60;;;4.20;99.90;;;;;;5032938;28;20193;-63
2023/02/07 09:01:32;;;;;;;17.03;10.30;;;4.20;99.90;;;;;;5032138;28;20179;-63
2023/02/07 09:04:03;;;;;;;15.53;11.30;;;4.20;99.90;;;;;;5032070;28;20190;-63
2023/02/07 09:06:29;;;;;;;12.68;11.00;;;4.30;99.90;;;;;;5032228;28;20456;-63
2023/02/07 09:08:55;;;;;;;14.80;11.57;;;4.40;99.90;;;;;;5033484;28;20221;-63
2023/02/07 09:11:21;;;;;;;12.50;8.73;;;4.50;99.90;;;;;;5046297;28;20186;-63
2023/02/07 09:13:47;;;;;;;13.20;10.80;;;4.60;99.90;;;;;;5045743;28;20191;-63
2023/02/07 09:16:13;;;;;;;15.50;10.40;;;4.70;99.90;;;;;;5033068;28;20185;-63
2023/02/07 09:18:40;;;;;;;15.30;11.07;;;4.80;99.90;;;;;;5031954;28;20194;-63
2023/02/07 09:21:06;;;;;;;13.32;10.70;;;4.90;99.90;;;;;;5032660;28;20236;-63
2023/02/07 09:23:34;;;;;;;11.98;9.32;;;5.10;99.90;;;;;;5032274;28;20530;-63
2023/02/07 09:26:03;;;;;;;12.18;10.93;;;5.40;99.90;;;;;;5032393;28;20191;-63
2023/02/07 09:28:29;;;;;;;13.25;11.82;;;5.70;99.90;;;;;;5013981;28;20588;-63
2023/02/07 09:30:55;;;;;;;13.75;10.63;;;5.90;99.90;;;;;;5032584;28;20619;-63
2023/02/07 09:33:24;;;;;;;17.97;11.97;;;6.20;99.90;;;;;;5040589;28;20199;-63
2023/02/07 09:35:50;;;;;;;15.07;11.90;;;6.50;99.90;;;;;;5034645;28;20232;-63
2023/02/07 09:38:21;;;;;;;15.40;13.90;;;6.70;99.90;;;;;;5032906;28;20425;-63
2023/02/07 09:40:49;;;;;;;17.20;14.20;;;7.00;99.90;;;;;;5036290;28;20501;-63
2023/02/07 09:43:43;;;;;;;17.83;13.93;;;7.20;99.90;;;;;;5032044;28;20966;-63
2023/02/07 09:46:20;;;;;;;15.33;10.73;;;7.40;99.90;;;;;;5048564;28;20425;-63
2023/02/07 09:48:53;;;;;;;12.80;10.80;;;7.60;98.80;;;;;;5040077;28;20450;-63
2023/02/07 09:51:22;;;;;;;13.90;12.40;;;7.80;95.10;;;;;;5031967;28;20919;-65
2023/02/07 09:54:05;;;;;;;13.77;11.60;;;7.90;96.10;;;;;;5031788;28;20566;-63
2023/02/07 09:56:33;;;;;;;11.37;10.27;;;8.00;96.80;;;;;;5040877;28;20745;-63
2023/02/07 09:59:36;;;;;;;12.67;11.47;;;8.30;95.20;;;;;;5046222;28;20469;-63
2023/02/07 10:02:14;;;;;;;11.30;10.10;;;8.50;95.20;;;;;;5032374;28;20436;-63
2023/02/07 10:04:42;;;;;;;10.70;9.70;;;8.80;94.40;;;;;;5031601;28;20440;-63
2023/02/07 10:07:12;;;;;;;13.77;9.50;;;9.10;92.80;;;;;;5045525;28;20900;-63
2023/02/07 10:09:43;;;;;;;10.03;9.13;;;9.20;91.90;;;;;;5047424;28;20424;-63
2023/02/07 10:12:28;;;;;;;10.20;9.40;;;9.30;90.70;;;;;;5052264;28;20448;-63
2023/02/07 10:15:12;;;;;;;9.63;8.73;;;9.30;86.50;;;;;;5039354;28;20827;-63
2023/02/07 10:18:29;;;;;;;11.03;9.07;;;9.30;89.80;;;;;;5035989;28;20780;-63
2023/02/07 10:21:10;;;;;;;8.17;7.40;;;9.20;87.10;;;;;;5020384;28;20427;-63
2023/02/07 10:24:03;;;;;;;8.60;7.90;;;9.10;89.50;;;;;;5037401;28;20436;-63
2023/02/07 10:26:40;;;;;;;8.50;7.80;;;9.20;90.00;;;;;;5028226;28;20822;-68
2023/02/07 10:29:39;;;;;;;8.33;7.63;;;9.40;89.90;;;;;;5031988;28;20427;-63
2023/02/07 10:32:20;;;;;;;10.77;9.90;;;9.70;90.20;;;;;;5032188;28;20442;-63
2023/02/07 10:34:46;;;;;;;7.97;7.37;;;9.90;86.10;;;;;;5031091;28;20438;-63
2023/02/07 10:37:24;;;;;;;7.70;6.87;;;10.20;84.70;;;;;;5031644;28;20463;-63
2023/02/07 10:40:04;;;;;;;11.40;10.10;;;10.40;83.30;;;;;;5013442;28;21239;-64
2023/02/07 10:42:34;;;;;;;9.50;8.70;;;10.60;80.70;;;;;;5032044;28;20474;-69
2023/02/07 10:45:00;;;;;;;7.47;6.87;;;10.80;80.10;;;;;;5031573;28;20464;-63
2023/02/07 10:47:28;;;;;;;9.20;7.00;;;11.00;76.80;;;;;;5013803;28;20953;-63
2023/02/07 10:49:55;;;;;;;8.90;8.20;;;11.00;73.30;;;;;;5031492;28;20734;-63
2023/02/07 10:52:42;;;;;;;7.87;7.27;;;10.90;73.50;;;;;;5031749;28;20976;-63
2023/02/07 10:55:14;;;;;;;9.97;8.07;;;10.70;71.70;;;;;;5031629;28;20974;-63
2023/02/07 10:57:39;;;;;;;7.90;7.20;;;10.40;72.20;;;;;;5013043;28;20435;-63
2023/02/07 11:00:14;;;;;;;7.97;7.27;;;10.40;74.00;;;;;;5032076;28;20417;-63
2023/02/07 11:02:52;;;;;;;8.13;7.53;;;10.20;74.00;;;;;;5027954;28;20599;-63
2023/02/07 11:05:17;;;;;;;7.20;6.60;;;10.10;73.40;;;;;;5049427;28;20436;-63
2023/02/07 11:08:04;;;;;;;7.07;6.50;;;10.10;74.00;;;;;;5034903;28;20757;-62
2023/02/07 11:10:38;;;;;;;6.80;6.20;;;10.40;75.00;;;;;;5035084;28;20638;-63
2023/02/07 11:13:12;;;;;;;6.60;6.07;;;10.70;72.60;;;;;;5035131;28;20904;-63
2023/02/07 11:15:46;;;;;;;7.10;6.60;;;11.00;72.40;;;;;;5034262;28;20398;-64
2023/02/07 11:18:26;;;;;;;10.50;8.60;;;11.20;70.10;;;;;;5035452;28;20796;-63
2023/02/07 11:20:55;;;;;;;7.20;6.70;;;11.40;66.80;;;;;;5033914;28;20677;-63
2023/02/07 11:23:22;;;;;;;7.47;6.77;;;11.50;68.60;;;;;;5040742;28;20472;-63
2023/02/07 11:25:51;;;;;;;5.67;5.17;;;11.70;65.40;;;;;;5054547;28;20465;-63
2023/02/07 11:28:29;;;;;;;6.13;5.63;;;11.90;63.80;;;;;;5053775;28;20427;-63
2023/02/07 11:31:06;;;;;;;6.90;6.40;;;11.90;61.50;;;;;;5012346;28;20842;-63
2023/02/07 11:33:35;;;;;;;6.70;6.10;;;11.90;60.90;;;;;;5034864;28;20445;-63
2023/02/07 11:36:15;;;;;;;6.90;6.30;;;11.80;62.10;;;;;;5051109;28;20802;-63
2023/02/07 11:38:50;;;;;;;6.70;6.10;;;11.90;60.70;;;;;;5040029;28;20831;-63
2023/02/07 11:41:23;;;;;;;8.50;7.70;;;12.10;61.70;;;;;;5037990;28;20466;-63
2023/02/07 11:44:01;;;;;;;7.10;6.50;;;12.20;63.50;;;;;;5054178;28;20428;-63
2023/02/07 11:46:40;;;;;;;7.43;6.83;;;12.30;64.30;;;;;;5054025;28;20426;-63
2023/02/07 11:49:19;;;;;;;7.57;6.97;;;12.40;62.90;;;;;;5054080;28;20486;-63
2023/02/07 11:51:48;;;;;;;6.80;6.30;;;12.20;58.40;;;;;;5053425;28;20458;-63
2023/02/07 11:54:15;;;;;;;10.20;9.60;;;11.90;59.40;;;;;;5054504;28;20412;-63
2023/02/07 11:56:43;;;;;;;6.27;5.77;;;12.00;61.20;;;;;;5071819;28;20472;-63
2023/02/07 11:59:27;;;;;;;7.73;7.23;;;12.20;60.50;;;;;;5067791;28;20774;-64
2023/02/07 12:01:57;;;;;;;6.57;5.97;;;12.40;59.70;;;;;;5052150;28;20785;-64
2023/02/07 12:04:34;;;;;;;6.33;5.73;;;12.40;59.30;;;;;;5054256;28;20477;-64
2023/02/07 12:07:02;;;;;;;8.80;8.00;;;12.60;59.40;;;;;;5066942;28;20424;-64
2023/02/07 12:09:53;;;;;;;5.97;5.57;;;12.70;59.50;;;;;;5071208;28;20419;-63
2023/02/07 12:12:27;;;;;;;6.67;5.70;;;12.70;59.20;;;;;;5054052;28;20503;-63
2023/02/07 12:15:26;;;;;;;9.97;9.27;;;12.80;58.70;;;;;;5052507;28;20446;-62
2023/02/07 12:17:51;;;;;;;7.87;7.17;;;12.90;59.50;;;;;;5032214;28;20491;-63
2023/02/07 12:20:41;;;;;;;7.03;6.43;;;12.90;58.20;;;;;;5053064;28;20433;-63
2023/02/07 12:23:12;;;;;;;6.70;6.10;;;13.00;57.70;;;;;;5052743;28;20264;-63
2023/02/07 12:25:44;;;;;;;7.73;7.03;;;13.10;57.70;;;;;;5053290;28;20438;-63
2023/02/07 12:28:31;;;;;;;7.67;6.87;;;13.00;58.50;;;;;;5053623;28;20436;-63
2023/02/07 12:31:04;;;;;;;7.47;6.97;;;13.00;57.50;;;;;;5052790;28;20439;-63
2023/02/07 12:33:47;;;;;;;7.30;6.60;;;13.10;58.00;;;;;;5051664;28;20471;-63
2023/02/07 12:36:36;;;;;;;6.60;6.10;;;13.00;56.60;;;;;;5053808;28;20413;-63
2023/02/07 12:39:15;;;;;;;6.43;5.93;;;13.00;57.70;;;;;;5052924;28;20445;-63
2023/02/07 12:41:47;;;;;;;6.73;6.23;;;13.10;57.30;;;;;;5043895;28;20500;-63
2023/02/07 12:44:19;;;;;;;7.00;6.50;;;13.10;56.40;;;;;;5050711;28;20966;-63
2023/02/07 12:46:58;;;;;;;6.80;6.23;;;12.90;57.10;;;;;;5033129;28;20398;-63
2023/02/07 12:49:48;;;;;;;7.13;6.53;;;12.80;56.90;;;;;;5030651;28;20485;-63
2023/02/07 12:52:25;;;;;;;7.03;6.43;;;12.60;57.90;;;;;;5041154;28;20456;-63
2023/02/07 12:55:35;;;;;;;9.30;8.60;;;12.40;59.40;;;;;;5017129;28;20783;-63
2023/02/07 12:58:36;;;;;;;7.00;6.50;;;12.20;56.80;;;;;;5005950;28;20416;-63
2023/02/07 13:01:06;;;;;;;7.10;6.50;;;12.30;57.70;;;;;;5050732;28;20423;-63